Time;durP1;ratioP1;P1;durP2;ratioP2;P2;SDS_P1;SDS_P2;PMS_P1;PMS_P2;Temp;Humidity;BMP_temperature;BMP_pressure;BME280_temperature;BME280_humidity;BME280_pressure;Samples;Min_cycle;Max_cycle;Signal;HPM_P1;HPM_P2
2023/07/19 00:03:31;;;;;;;2.80;1.95;;;;;;;-145.68;62.32;73623.72;10370808;28;20329;-69
2023/07/19 00:08:32;;;;;;;4.40;2.10;;;;;;;-145.68;62.85;73619.72;10370696;28;20255;-69
2023/07/19 00:13:32;;;;;;;5.22;2.40;;;;;;;-145.68;63.29;73633.72;10370735;28;20236;-70
2023/07/19 00:18:33;;;;;;;3.22;2.33;;;;;;;-145.68;63.44;73633.72;10370485;28;20193;-69
2023/07/19 00:23:33;;;;;;;3.72;2.30;;;;;;;-145.68;64.50;73641.72;10370117;28;20282;-70
2023/07/19 00:28:34;;;;;;;5.10;2.53;;;;;;;-145.68;65.17;73647.72;10370239;28;20880;-70
2023/07/19 00:33:34;;;;;;;5.57;2.50;;;;;;;-145.68;65.47;73651.72;10352465;28;20224;-69
2023/07/19 00:38:34;;;;;;;3.58;2.65;;;;;;;-145.68;65.38;73639.72;10370403;28;20684;-69
2023/07/19 00:43:36;;;;;;;4.40;2.47;;;;;;;-145.68;66.18;73643.72;10369527;28;20225;-70
2023/07/19 00:48:36;;;;;;;3.42;2.17;;;;;;;-145.68;66.69;73643.72;10352406;28;20688;-70
2023/07/19 00:53:40;;;;;;;6.22;2.72;;;;;;;-145.68;66.85;73647.72;10369707;28;20262;-69
2023/07/19 00:58:40;;;;;;;2.78;2.08;;;;;;;-145.68;67.51;73643.72;10369658;28;20204;-69
2023/07/19 01:03:41;;;;;;;2.63;2.20;;;;;;;-145.68;67.83;73643.72;10335348;28;20237;-68
2023/07/19 01:08:41;;;;;;;2.80;2.00;;;;;;;-145.68;68.29;73647.72;10369485;28;20267;-69
2023/07/19 01:13:52;;;;;;;5.90;2.30;;;;;;;-145.68;68.52;73633.72;10369666;28;20197;-69
2023/07/19 01:18:52;;;;;;;5.03;2.22;;;;;;;-145.68;68.44;73631.72;10351827;28;20228;-69
2023/07/19 01:23:54;;;;;;;3.72;2.00;;;;;;;-145.68;68.71;73627.72;10351480;28;20715;-69
2023/07/19 01:28:57;;;;;;;3.13;2.00;;;;;;;-145.68;69.23;73627.72;10369468;28;20186;-69
2023/07/19 01:33:58;;;;;;;2.50;2.00;;;;;;;-145.68;69.28;73623.72;10351517;28;20202;-69
2023/07/19 01:38:58;;;;;;;4.90;2.17;;;;;;;-145.68;69.18;73621.72;10372484;28;20199;-69
2023/07/19 01:43:59;;;;;;;4.10;1.90;;;;;;;-145.68;69.06;73621.72;10376043;28;20228;-69
2023/07/19 01:48:59;;;;;;;4.72;2.20;;;;;;;-145.68;69.19;73615.72;10375805;28;20255;-69
2023/07/19 01:54:02;;;;;;;4.63;2.53;;;;;;;-145.68;68.54;73607.72;10358177;28;20205;-69
2023/07/19 01:59:02;;;;;;;5.60;2.50;;;;;;;-145.68;69.11;73611.72;10375439;28;20193;-69
2023/07/19 02:04:02;;;;;;;3.00;2.08;;;;;;;-145.68;69.26;73611.72;10375152;28;20225;-69
2023/07/19 02:09:03;;;;;;;3.85;2.40;;;;;;;-145.68;69.57;73611.72;10375192;28;20220;-69
2023/07/19 02:14:03;;;;;;;3.38;2.20;;;;;;;-145.68;69.64;73605.72;10374895;28;20279;-69
2023/07/19 02:19:06;;;;;;;5.07;2.88;;;;;;;-145.68;69.63;73611.72;10374801;28;20281;-69
2023/07/19 02:24:06;;;;;;;4.43;2.47;;;;;;;-145.68;70.07;73623.72;10374283;28;20217;-70
2023/07/19 02:29:06;;;;;;;4.75;2.50;;;;;;;-145.68;70.24;73619.72;10374541;28;20256;-69
2023/07/19 02:34:07;;;;;;;4.40;2.50;;;;;;;-145.68;70.21;73613.72;10356442;28;20197;-70
2023/07/19 02:39:07;;;;;;;6.50;2.42;;;;;;;-145.68;70.19;73619.72;10374121;28;20656;-70
2023/07/19 02:44:07;;;;;;;3.47;1.90;;;;;;;-145.68;70.30;73619.72;10373539;28;20217;-70
2023/07/19 02:49:08;;;;;;;5.50;2.67;;;;;;;-145.68;71.41;73633.72;10373257;28;20243;-71
2023/07/19 02:54:08;;;;;;;3.25;2.17;;;;;;;-145.68;71.00;73615.72;10373398;28;20217;-70
2023/07/19 02:59:09;;;;;;;3.37;1.97;;;;;;;-145.68;71.05;73623.72;10372688;28;20318;-70
2023/07/19 03:04:12;;;;;;;3.83;2.20;;;;;;;-145.68;72.15;73637.72;10392228;28;20239;-70
2023/07/19 03:09:15;;;;;;;14.80;2.43;;;;;;;-145.68;72.79;73639.72;10413100;28;20197;-69
2023/07/19 03:14:15;;;;;;;3.70;2.28;;;;;;;-145.68;72.46;73639.72;10395734;28;20220;-70
2023/07/19 03:19:16;;;;;;;5.55;2.58;;;;;;;-145.68;71.55;73635.72;10395559;28;20192;-69
2023/07/19 03:24:16;;;;;;;4.27;2.13;;;;;;;-145.68;71.87;73633.72;10395228;28;20220;-70
2023/07/19 03:29:16;;;;;;;6.40;2.57;;;;;;;-145.68;72.84;73659.69;10413186;28;20184;-69
2023/07/19 03:34:17;;;;;;;3.10;2.53;;;;;;;-145.68;73.51;73663.69;10394932;28;20287;-70
2023/07/19 03:39:17;;;;;;;3.30;2.13;;;;;;;-145.68;74.07;73649.72;10395002;28;20644;-70
2023/07/19 03:44:18;;;;;;;4.23;2.40;;;;;;;-145.68;72.67;73639.72;10394431;28;20653;-70
2023/07/19 03:49:18;;;;;;;3.77;2.20;;;;;;;-145.68;71.94;73627.72;10412306;28;20212;-70
2023/07/19 03:54:19;;;;;;;6.40;2.13;;;;;;;-145.68;72.06;73631.72;10394409;28;20204;-70
2023/07/19 03:59:19;;;;;;;3.57;2.10;;;;;;;-145.68;71.52;73635.72;10411465;28;20185;-69
2023/07/19 04:04:20;;;;;;;5.03;2.40;;;;;;;-145.68;70.88;73611.72;10393548;28;20337;-70
2023/07/19 04:09:20;;;;;;;4.80;2.80;;;;;;;-145.68;70.31;73599.72;10411519;28;20199;-70
2023/07/19 04:14:20;;;;;;;4.73;2.20;;;;;;;-145.68;69.87;73601.72;10411639;28;20338;-69
2023/07/19 04:19:21;;;;;;;4.73;2.23;;;;;;;-145.68;69.35;73577.75;10393481;28;20199;-69
2023/07/19 04:24:21;;;;;;;5.78;2.45;;;;;;;-145.68;69.16;73579.75;10411107;28;20221;-70
2023/07/19 04:29:22;;;;;;;5.70;2.15;;;;;;;-145.68;68.67;73551.75;10393487;28;20211;-69
2023/07/19 04:34:22;;;;;;;3.33;2.10;;;;;;;-145.68;67.80;73527.78;10393283;28;20205;-70
2023/07/19 04:39:23;;;;;;;4.93;2.45;;;;;;;-145.68;66.50;73497.78;10393407;28;20188;-69
2023/07/19 04:44:24;;;;;;;5.07;2.75;;;;;;;-145.68;64.78;73441.81;10392869;28;20636;-70
2023/07/19 04:49:25;;;;;;;4.28;2.30;;;;;;;-145.68;63.93;73415.84;10393170;28;20279;-70
2023/07/19 04:54:26;;;;;;;5.00;2.38;;;;;;;-145.68;63.51;73421.84;10410549;28;20203;-70
2023/07/19 04:59:26;;;;;;;4.07;2.45;;;;;;;-145.68;63.02;73383.88;10410680;28;20545;-70
2023/07/19 05:04:27;;;;;;;5.78;2.47;;;;;;;-145.68;61.60;73333.91;10432241;22;20236;-64
2023/07/19 05:09:28;;;;;;;3.05;2.13;;;;;;;-145.68;60.48;73307.91;10391925;28;20192;-65
2023/07/19 05:14:28;;;;;;;3.72;2.15;;;;;;;-145.68;59.75;73275.94;10374404;28;20197;-65
2023/07/19 05:19:30;;;;;;;4.82;1.90;;;;;;;-145.68;59.07;73239.97;10359979;28;20196;-66
2023/07/19 05:24:30;;;;;;;3.53;2.28;;;;;;;-145.68;57.95;73180.00;10376766;28;20216;-65
2023/07/19 05:29:31;;;;;;;7.22;2.58;;;;;;;-145.68;56.68;73130.03;10359158;28;20197;-65
2023/07/19 05:34:32;;;;;;;1.80;1.63;;;;;;;-145.68;55.57;73076.06;10376487;28;20549;-67
2023/07/19 05:39:34;;;;;;;3.03;2.28;;;;;;;-145.68;54.75;73038.09;10376424;28;20258;-66
2023/07/19 05:44:34;;;;;;;5.70;2.40;;;;;;;-145.68;54.14;72996.13;10375820;28;20228;-66
2023/07/19 05:49:35;;;;;;;8.02;2.42;;;;;;;-145.68;54.11;72962.16;10376004;28;20204;-66
2023/07/19 05:54:35;;;;;;;3.80;2.35;;;;;;;-145.68;53.02;72898.19;10388033;28;20714;-66
2023/07/19 05:59:35;;;;;;;5.10;2.30;;;;;;;-145.68;52.23;72828.25;10393724;28;20208;-65
2023/07/19 06:04:36;;;;;;;3.05;2.05;;;;;;;-145.68;51.89;72772.31;10416110;28;20315;-65
2023/07/19 06:09:36;;;;;;;4.65;1.90;;;;;;;-145.68;50.58;72712.34;10416079;28;20196;-65
2023/07/19 06:14:36;;;;;;;5.85;2.40;;;;;;;-145.68;50.11;72664.38;10415750;28;20220;-65
2023/07/19 06:19:37;;;;;;;3.67;1.95;;;;;;;-145.68;48.82;72602.44;10415567;28;20647;-67
2023/07/19 06:24:37;;;;;;;3.83;2.00;;;;;;;-145.68;47.33;72516.50;10414723;28;20992;-67
2023/07/19 06:29:38;;;;;;;3.40;1.58;;;;;;;-145.68;45.46;72424.59;10415208;28;20557;-65
2023/07/19 06:34:38;;;;;;;3.78;2.13;;;;;;;-145.68;43.64;72342.66;10415149;28;20204;-67
2023/07/19 06:39:39;;;;;;;4.82;2.10;;;;;;;-145.68;41.79;72204.78;10414727;28;20193;-67
2023/07/19 06:44:39;;;;;;;4.60;1.85;;;;;;;-145.68;39.56;72142.84;10414681;28;20208;-67
2023/07/19 06:49:39;;;;;;;4.07;1.98;;;;;;;-145.68;35.65;71881.09;10414513;28;20207;-66
2023/07/19 06:54:40;;;;;;;8.27;2.10;;;;;;;-145.68;34.88;71805.19;10409124;28;20210;-66
2023/07/19 06:59:40;;;;;;;2.38;1.90;;;;;;;-145.68;34.10;71885.09;10402721;28;20196;-66
2023/07/19 07:04:41;;;;;;;2.70;1.80;;;;;;;-145.68;34.06;71879.09;10412041;28;20236;-66
2023/07/19 07:09:42;;;;;;;6.82;2.20;;;;;;;-145.68;32.82;71763.22;10395354;28;20192;-66
2023/07/19 07:14:42;;;;;;;4.72;1.88;;;;;;;-145.68;32.83;71853.13;10390570;28;20331;-65
2023/07/19 07:19:42;;;;;;;2.47;1.88;;;;;;;-145.68;32.29;71755.22;10397708;28;20196;-66
2023/07/19 07:24:43;;;;;;;3.33;2.00;;;;;;;-145.68;32.13;71675.31;10402924;28;20719;-65
2023/07/19 07:29:43;;;;;;;2.40;2.08;;;;;;;-145.68;34.33;71969.00;10404718;28;20189;-65
2023/07/19 07:34:44;;;;;;;6.95;1.98;;;;;;;-145.68;33.48;71883.09;10409457;28;20216;-65
2023/07/19 07:39:44;;;;;;;6.22;2.35;;;;;;;-145.68;32.94;71753.22;10410851;28;20189;-65
2023/07/19 07:44:44;;;;;;;3.80;2.00;;;;;;;-145.68;31.92;71689.31;10411053;28;20232;-65
2023/07/19 07:49:46;;;;;;;3.80;2.23;;;;;;;-145.68;30.95;71499.50;10410251;28;20196;-65
2023/07/19 07:54:48;;;;;;;3.90;2.05;;;;;;;-145.68;29.63;71399.63;10410466;28;20474;-67
2023/07/19 07:59:48;;;;;;;2.92;2.22;;;;;;;-145.68;30.58;71501.50;10410478;28;20677;-66
2023/07/19 08:04:49;;;;;;;2.97;2.33;;;;;;;-145.68;29.66;71365.66;10408620;28;20255;-66
2023/07/19 08:09:49;;;;;;;4.28;2.35;;;;;;;-145.68;29.38;71521.47;10415375;28;20530;-65
2023/07/19 08:14:50;;;;;;;4.03;2.30;;;;;;;-145.68;30.70;71569.44;10409950;28;20299;-65
2023/07/19 08:19:50;;;;;;;2.90;2.10;;;;;;;-145.68;32.33;71809.16;10410036;28;20566;-65
2023/07/19 08:24:51;;;;;;;2.45;2.20;;;;;;;-145.68;31.92;71769.22;10409293;28;20225;-64
2023/07/19 08:29:52;;;;;;;3.17;2.22;;;;;;;-145.68;29.46;71481.53;10409583;28;20192;-65
2023/07/19 08:34:52;;;;;;;5.90;2.38;;;;;;;-145.68;31.02;71639.34;10409804;28;20215;-67
2023/07/19 08:39:53;;;;;;;7.50;2.33;;;;;;;-145.68;31.44;71639.34;10408350;28;20211;-66
2023/07/19 08:44:54;;;;;;;2.42;2.00;;;;;;;-145.68;31.85;71725.25;10409500;28;20475;-65
2023/07/19 08:49:55;;;;;;;4.13;2.00;;;;;;;-145.68;32.93;71859.13;10415395;28;20268;-65
2023/07/19 08:54:55;;;;;;;3.03;2.10;;;;;;;-145.68;31.37;71549.44;10416499;28;20287;-66
2023/07/19 08:59:55;;;;;;;3.65;2.28;;;;;;;-145.68;30.49;71385.63;10417406;28;20192;-65
2023/07/19 09:05:12;;;;;;;3.28;1.90;;;;;;;-145.68;29.44;71337.69;10416511;28;20242;-66
2023/07/19 09:10:12;;;;;;;2.78;2.25;;;;;;;-145.68;29.51;71419.59;10415848;28;20214;-67
2023/07/19 09:15:13;;;;;;;3.67;2.03;;;;;;;-145.68;30.59;71509.50;10416482;28;20222;-66
2023/07/19 09:20:15;;;;;;;6.65;2.10;;;;;;;-145.68;31.72;71617.38;10415892;28;20675;-67
2023/07/19 09:25:15;;;;;;;5.25;1.88;;;;;;;-145.68;31.67;71613.38;10416049;28;20251;-65
2023/07/19 09:30:15;;;;;;;3.35;2.20;;;;;;;-145.68;31.36;71493.50;10415537;28;20283;-66
2023/07/19 09:35:28;;;;;;;4.63;2.20;;;;;;;-145.68;31.59;71613.38;10415578;28;20231;-64
2023/07/19 09:40:29;;;;;;;2.85;1.92;;;;;;;-145.68;30.49;71459.53;10412581;28;20197;-63
2023/07/19 09:45:32;;;;;;;3.50;2.20;;;;;;;-145.68;32.01;71651.34;10397502;28;20224;-63
2023/07/19 09:50:32;;;;;;;4.20;2.20;;;;;;;-145.68;31.71;71595.41;10414494;28;20192;-63
2023/07/19 09:55:33;;;;;;;2.20;2.00;;;;;;;-145.68;32.28;71621.38;10415137;28;20208;-64
2023/07/19 10:00:34;;;;;;;3.47;2.35;;;;;;;-145.68;33.43;71807.19;10412806;28;20570;-63
2023/07/19 10:05:35;;;;;;;4.28;2.33;;;;;;;-145.68;32.64;71615.38;10414795;28;20280;-63
2023/07/19 10:10:39;;;;;;;5.28;2.72;;;;;;;-145.68;31.65;71497.50;10414840;28;20246;-64
2023/07/19 10:15:40;;;;;;;3.47;2.40;;;;;;;-145.68;30.57;71329.69;10413650;28;20199;-64
2023/07/19 10:20:42;;;;;;;4.53;2.40;;;;;;;-145.68;30.25;71335.69;10414118;28;20757;-64
2023/07/19 10:25:48;;;;;;;4.55;2.03;;;;;;;-145.68;32.19;71567.44;10403849;28;20213;-63
2023/07/19 10:30:52;;;;;;;4.00;2.60;;;;;;;-145.68;32.08;71521.47;10393749;28;20335;-63
2023/07/19 10:35:55;;;;;;;4.82;2.50;;;;;;;-145.68;32.46;71657.34;10390124;28;20189;-64
2023/07/19 10:40:57;;;;;;;7.78;2.55;;;;;;;-145.68;33.42;71731.25;10391623;28;20708;-64
2023/07/19 10:45:59;;;;;;;6.47;2.33;;;;;;;-145.68;33.10;71597.41;10400701;28;20224;-64
2023/07/19 10:51:03;;;;;;;6.95;2.25;;;;;;;-145.68;31.41;71477.53;10412990;28;20212;-64
2023/07/19 10:56:04;;;;;;;3.63;2.30;;;;;;;-145.68;31.29;71413.59;10413024;28;20239;-62
2023/07/19 11:06:13;;;;;;;5.22;2.40;;;;;;;-145.68;30.55;71273.75;10321557;28;20253;-69
2023/07/19 11:11:14;;;;;;;8.98;2.60;;;;;;;-145.68;30.70;71441.56;10330777;28;20705;-68
2023/07/19 11:16:14;;;;;;;4.22;2.28;;;;;;;-145.68;31.36;71545.44;10308924;28;20206;-68
2023/07/19 11:21:24;;;;;;;6.07;2.30;;;;;;;-145.68;30.88;71345.69;10290001;28;20245;-68
2023/07/19 11:26:24;;;;;;;3.20;2.40;;;;;;;-145.68;29.01;71173.88;10288761;28;20191;-68
2023/07/19 11:31:35;;;;;;;4.18;2.30;;;;;;;-145.68;30.54;71375.66;10286905;28;20210;-69
2023/07/19 11:36:40;;;;;;;3.30;2.15;;;;;;;-145.68;30.52;71347.66;10287439;28;20187;-69
2023/07/19 11:41:48;;;;;;;6.18;2.20;;;;;;;-145.68;29.37;71221.81;10284993;28;20301;-70
2023/07/19 11:46:49;;;;;;;2.78;2.00;;;;;;;-145.68;29.44;71189.84;10278304;28;20195;-70
2023/07/19 11:51:49;;;;;;;3.47;2.58;;;;;;;-145.68;29.57;71227.81;10286841;28;20215;-70
2023/07/19 11:56:49;;;;;;;4.80;2.33;;;;;;;-145.68;29.75;71217.81;10288796;28;20191;-69
2023/07/19 12:01:50;;;;;;;7.17;2.50;;;;;;;-145.68;29.80;71227.81;10288620;28;20416;-69
2023/07/19 12:06:50;;;;;;;2.40;2.03;;;;;;;-145.68;29.15;71157.91;10288817;28;20434;-70
2023/07/19 12:11:50;;;;;;;3.83;2.27;;;;;;;-145.68;29.98;71257.78;10289016;28;20430;-70
2023/07/19 12:16:51;;;;;;;4.67;2.53;;;;;;;-145.68;29.52;71261.78;10288363;28;20445;-69
2023/07/19 12:21:52;;;;;;;3.00;2.10;;;;;;;-145.68;30.38;71289.75;10287083;28;20486;-69
2023/07/19 12:26:53;;;;;;;3.92;2.63;;;;;;;-145.68;29.15;71135.91;10287550;28;20272;-69
2023/07/19 12:31:53;;;;;;;8.33;2.43;;;;;;;-145.68;28.27;71080.00;10287657;28;20198;-70
2023/07/19 12:36:54;;;;;;;5.67;2.23;;;;;;;-145.68;28.84;71113.94;10288136;28;20450;-69
2023/07/19 12:41:55;;;;;;;6.20;2.03;;;;;;;-145.68;28.63;71121.94;10287323;28;20477;-70
2023/07/19 12:46:55;;;;;;;4.95;2.17;;;;;;;-145.68;29.32;71151.91;10288017;28;20202;-70
2023/07/19 12:51:56;;;;;;;9.30;2.50;;;;;;;-145.68;28.72;71111.94;10287253;28;20297;-70
2023/07/19 12:56:56;;;;;;;11.55;2.50;;;;;;;-145.68;29.78;71181.88;10286520;28;20445;-69
2023/07/19 13:01:56;;;;;;;6.30;2.70;;;;;;;-145.68;29.38;71215.81;10286911;28;20663;-69
2023/07/19 13:06:57;;;;;;;3.35;2.13;;;;;;;-145.68;29.47;71241.78;10287069;28;20190;-69
2023/07/19 13:11:58;;;;;;;4.88;2.58;;;;;;;-145.68;29.56;71233.81;10287486;28;20233;-69
2023/07/19 13:16:58;;;;;;;6.70;2.53;;;;;;;-145.68;29.76;71249.78;10287485;28;20250;-68
2023/07/19 13:21:58;;;;;;;4.23;2.13;;;;;;;-145.68;29.88;71245.78;10287651;28;20290;-68
2023/07/19 13:26:59;;;;;;;7.75;2.25;;;;;;;-145.68;30.68;71353.66;10286209;28;20446;-69
2023/07/19 13:31:59;;;;;;;5.20;2.67;;;;;;;-145.68;30.38;71345.69;10288283;28;20709;-68
2023/07/19 13:37:00;;;;;;;3.97;2.40;;;;;;;-145.68;30.55;71363.66;10294701;28;20745;-68
2023/07/19 13:42:00;;;;;;;4.03;2.30;;;;;;;-145.68;32.15;71505.50;10293982;28;20312;-68
2023/07/19 13:47:01;;;;;;;5.57;2.43;;;;;;;-145.68;31.56;71449.56;10293917;28;20532;-69
2023/07/19 13:52:02;;;;;;;3.38;2.28;;;;;;;-145.68;30.79;71335.69;10293449;28;20454;-68
2023/07/19 13:57:04;;;;;;;5.05;1.90;;;;;;;-145.68;30.37;71251.78;10295776;28;20198;-67
2023/07/19 14:02:05;;;;;;;5.70;2.30;;;;;;;-145.68;29.65;71217.81;10292521;28;20234;-68
2023/07/19 14:07:06;;;;;;;5.70;2.50;;;;;;;-145.68;29.06;71129.94;10290257;28;20194;-68
2023/07/19 14:12:07;;;;;;;3.95;2.28;;;;;;;-145.68;30.46;71385.63;10290246;28;20289;-68
2023/07/19 14:17:08;;;;;;;9.02;2.17;;;;;;;-145.68;29.65;71255.78;10291785;28;20658;-69
2023/07/19 14:22:08;;;;;;;5.38;2.60;;;;;;;-145.68;30.80;71453.56;10292373;28;20281;-69
2023/07/19 14:27:09;;;;;;;3.85;2.20;;;;;;;-145.68;31.95;71547.44;10292458;28;20198;-69
2023/07/19 14:32:10;;;;;;;4.38;2.35;;;;;;;-145.68;31.26;71443.56;10290935;28;20677;-68
2023/07/19 14:37:10;;;;;;;7.05;2.10;;;;;;;-145.68;31.81;71473.53;10291736;28;20625;-68
2023/07/19 14:42:11;;;;;;;7.55;2.42;;;;;;;-145.68;30.48;71413.59;10291628;28;20227;-68
2023/07/19 14:47:12;;;;;;;6.72;2.22;;;;;;;-145.68;30.98;71457.56;10273543;28;20535;-68
2023/07/19 14:52:12;;;;;;;4.35;1.92;;;;;;;-145.68;31.04;71491.50;10291194;28;20558;-68
2023/07/19 14:57:13;;;;;;;2.45;2.00;;;;;;;-145.68;31.11;71483.53;10273731;28;20661;-69
2023/07/19 15:02:14;;;;;;;4.60;1.85;;;;;;;-145.68;31.36;71505.50;10289203;28;20328;-68
2023/07/19 15:07:15;;;;;;;5.35;2.10;;;;;;;-145.68;31.45;71573.41;10290829;28;20219;-69
2023/07/19 15:12:15;;;;;;;5.13;2.20;;;;;;;-145.68;31.18;71555.44;10289336;28;20217;-70
2023/07/19 15:17:16;;;;;;;5.40;1.98;;;;;;;-145.68;31.88;71583.41;10290428;28;20434;-70
2023/07/19 15:22:16;;;;;;;4.95;2.10;;;;;;;-145.68;32.41;71611.38;10289512;28;20222;-71
2023/07/19 15:27:16;;;;;;;3.72;2.30;;;;;;;-145.68;32.82;71609.38;10290128;28;20652;-71
2023/07/19 15:32:17;;;;;;;5.05;2.55;;;;;;;-145.68;32.52;71527.47;10289724;28;20207;-71
2023/07/19 15:37:17;;;;;;;3.80;2.58;;;;;;;-145.68;33.15;71585.41;10288790;28;20202;-70
2023/07/19 15:42:17;;;;;;;4.88;2.17;;;;;;;-145.68;32.66;71475.53;10285486;28;20678;-70
2023/07/19 15:47:19;;;;;;;5.13;1.90;;;;;;;-145.68;31.78;71389.63;10286187;28;20201;-70
2023/07/19 15:52:19;;;;;;;7.90;2.25;;;;;;;-145.68;32.28;71461.53;10285399;28;20474;-70
2023/07/19 15:57:19;;;;;;;2.72;1.88;;;;;;;-145.68;33.25;71565.44;10271217;28;20191;-70
2023/07/19 16:02:20;;;;;;;5.75;2.30;;;;;;;-145.68;33.52;71593.41;10289131;28;20661;-70
2023/07/19 16:07:22;;;;;;;9.20;2.10;;;;;;;-145.68;32.33;71513.50;10288260;28;20201;-69
2023/07/19 16:12:23;;;;;;;7.13;2.13;;;;;;;-145.68;32.19;71493.50;10287906;28;20217;-70
2023/07/19 16:17:23;;;;;;;7.40;1.90;;;;;;;-145.68;33.87;71653.34;10290259;28;20675;-70
2023/07/19 16:22:24;;;;;;;4.53;2.03;;;;;;;-145.68;34.63;71731.25;10289787;28;20241;-69
2023/07/19 16:27:24;;;;;;;8.07;2.22;;;;;;;-145.68;34.76;71719.25;10290355;28;20434;-70
2023/07/19 16:32:25;;;;;;;5.60;2.22;;;;;;;-145.68;35.04;71745.25;10289967;28;20645;-70
2023/07/19 16:37:25;;;;;;;4.15;2.10;;;;;;;-145.68;35.11;71763.22;10289525;28;20194;-70
2023/07/19 16:42:26;;;;;;;4.18;1.52;;;;;;;-145.68;35.41;71875.09;10289760;28;20233;-70
2023/07/19 16:47:28;;;;;;;5.95;1.50;;;;;;;-145.68;36.00;71971.00;10288769;28;20278;-70
2023/07/19 16:52:29;;;;;;;9.32;3.40;;;;;;;-145.68;37.03;72038.94;10247537;28;20570;-69
2023/07/19 16:57:29;;;;;;;2.10;1.65;;;;;;;-145.68;37.01;71993.00;10248423;29;20195;-70
2023/07/19 17:02:30;;;;;;;3.50;1.60;;;;;;;-145.68;37.21;71983.00;10264934;28;20234;-70
2023/07/19 17:07:30;;;;;;;2.85;1.75;;;;;;;-145.68;37.63;72018.97;10343938;22;20280;-65
2023/07/19 17:12:31;;;;;;;10.25;3.78;;;;;;;-145.68;38.18;72054.94;10336681;28;20190;-66
2023/07/19 17:17:32;;;;;;;9.52;5.65;;;;;;;-145.68;38.67;72082.91;10336722;28;20214;-66
2023/07/19 17:22:32;;;;;;;3.65;1.40;;;;;;;-145.68;38.75;72088.91;10336654;28;20229;-66
2023/07/19 17:27:33;;;;;;;17.38;9.95;;;;;;;-145.68;39.21;72148.84;10336909;28;20737;-65
2023/07/19 17:32:33;;;;;;;7.60;5.30;;;;;;;-145.68;39.04;72144.84;10336160;28;20205;-65
2023/07/19 17:37:33;;;;;;;9.38;2.33;;;;;;;-145.68;40.07;72226.75;10336198;28;20217;-65
2023/07/19 17:42:34;;;;;;;2.90;2.30;;;;;;;-145.68;40.65;72228.75;10336145;28;20222;-65
2023/07/19 17:47:34;;;;;;;143.45;83.07;;;;;;;-145.68;40.77;72228.75;10337411;28;20260;-64
2023/07/19 17:52:35;;;;;;;5.00;1.85;;;;;;;-145.68;41.24;72248.75;10353546;28;20196;-65
2023/07/19 17:57:35;;;;;;;6.20;3.05;;;;;;;-145.68;41.05;72252.75;10373217;28;20248;-65
2023/07/19 18:02:36;;;;;;;5.57;2.03;;;;;;;-145.68;41.13;72276.72;10375952;28;20232;-65
2023/07/19 18:07:36;;;;;;;6.15;1.90;;;;;;;-145.68;41.80;72270.72;10373159;28;20368;-66
2023/07/19 18:12:37;;;;;;;5.72;4.25;;;;;;;-145.68;42.25;72322.69;10354662;28;20189;-66
2023/07/19 18:17:37;;;;;;;11.23;8.38;;;;;;;-145.68;42.92;72360.66;10375461;28;20240;-66
2023/07/19 18:22:39;;;;;;;11.50;6.40;;;;;;;-145.68;43.56;72376.63;10374348;28;20228;-65
2023/07/19 18:27:39;;;;;;;22.15;11.75;;;;;;;-145.68;44.33;72392.63;10360974;28;20296;-64
2023/07/19 18:32:39;;;;;;;9.10;5.25;;;;;;;-145.68;44.85;72408.59;10353907;28;20285;-64
2023/07/19 18:37:40;;;;;;;4.00;2.00;;;;;;;-145.68;44.98;72404.59;10352371;28;20220;-65
2023/07/19 18:42:40;;;;;;;2.38;1.70;;;;;;;-145.68;45.32;72428.59;10357819;28;20224;-65
2023/07/19 18:47:41;;;;;;;3.85;1.85;;;;;;;-145.68;46.19;72448.56;10373716;28;20213;-65
2023/07/19 18:52:41;;;;;;;2.83;1.70;;;;;;;-145.68;46.22;72450.56;10373256;28;20190;-65
2023/07/19 18:57:41;;;;;;;5.38;1.80;;;;;;;-145.68;46.81;72468.56;10373218;28;20304;-64
2023/07/19 19:02:42;;;;;;;3.42;1.92;;;;;;;-145.68;46.84;72500.53;10373134;28;20248;-63
2023/07/19 19:07:44;;;;;;;2.35;1.77;;;;;;;-145.68;48.10;72544.50;10372576;28;20699;-65
2023/07/19 19:12:45;;;;;;;4.40;2.13;;;;;;;-145.68;48.08;72538.50;10372730;28;20196;-65
2023/07/19 19:17:46;;;;;;;2.83;1.90;;;;;;;-145.68;48.43;72556.47;10372380;28;20600;-64
2023/07/19 19:22:47;;;;;;;7.15;1.92;;;;;;;-145.68;49.32;72570.47;10372263;28;20221;-65
2023/07/19 19:27:48;;;;;;;2.90;1.98;;;;;;;-145.68;50.66;72612.44;10371779;28;20213;-65
2023/07/19 19:32:49;;;;;;;4.55;1.80;;;;;;;-145.68;50.91;72662.38;10371548;28;20198;-65
2023/07/19 19:37:49;;;;;;;4.38;2.00;;;;;;;-145.68;51.45;72700.34;10371786;28;20227;-65
2023/07/19 19:42:50;;;;;;;3.42;2.00;;;;;;;-145.68;53.11;72752.31;10371404;28;20221;-64
2023/07/19 19:47:50;;;;;;;6.72;2.10;;;;;;;-145.68;56.05;72784.28;10371719;28;20213;-65
2023/07/19 19:52:51;;;;;;;4.80;2.50;;;;;;;-145.68;62.84;72822.25;10371271;28;20340;-66
2023/07/19 19:57:51;;;;;;;6.07;2.95;;;;;;;-145.68;78.22;72988.13;10371210;28;20208;-68
2023/07/19 20:02:51;;;;;;;5.25;2.95;;;;;;;-145.68;95.39;73072.06;10370865;28;20323;-66
2023/07/19 20:07:52;;;;;;;10.23;3.92;;;;;;;-145.68;100.00;73110.06;10370865;28;20645;-66
2023/07/19 20:12:52;;;;;;;6.03;3.47;;;;;;;-145.68;100.00;73134.03;10358228;28;20186;-66
2023/07/19 20:17:52;;;;;;;7.15;3.85;;;;;;;-145.68;100.00;73146.03;10349886;28;20201;-65
2023/07/19 20:22:53;;;;;;;7.82;4.35;;;;;;;-145.68;100.00;73172.00;10350477;28;20586;-64
2023/07/19 20:27:53;;;;;;;6.82;4.25;;;;;;;-145.68;100.00;73180.00;10336540;28;20214;-63
2023/07/19 20:32:54;;;;;;;7.28;5.07;;;;;;;-145.68;100.00;73184.00;10329355;28;20236;-64
2023/07/19 20:37:54;;;;;;;8.05;4.28;;;;;;;-145.68;100.00;73184.00;10329137;28;20205;-65
2023/07/19 20:42:54;;;;;;;7.90;4.15;;;;;;;-145.68;100.00;73188.00;10331081;28;20275;-64
2023/07/19 20:47:55;;;;;;;6.28;3.90;;;;;;;-145.68;100.00;73186.00;10337080;28;20624;-65
2023/07/19 20:52:56;;;;;;;5.40;4.22;;;;;;;-145.68;100.00;73178.00;10337056;28;20193;-64
2023/07/19 20:57:56;;;;;;;5.57;4.32;;;;;;;-145.68;100.00;73178.00;10337005;28;20295;-64
2023/07/19 21:02:57;;;;;;;6.72;4.53;;;;;;;-145.68;100.00;73170.00;10336679;28;20276;-64
2023/07/19 21:07:57;;;;;;;6.30;4.47;;;;;;;-145.68;100.00;73160.00;10336169;28;20233;-64
2023/07/19 21:12:57;;;;;;;5.63;4.97;;;;;;;-145.68;100.00;73160.00;10336520;28;20683;-64
2023/07/19 21:17:58;;;;;;;8.07;4.75;;;;;;;-145.68;100.00;73150.03;10336203;28;20587;-64
2023/07/19 21:22:58;;;;;;;7.72;4.15;;;;;;;-145.68;100.00;73132.03;10336378;28;20226;-63
2023/07/19 21:27:59;;;;;;;5.60;4.25;;;;;;;-145.68;100.00;73150.03;10336593;28;20317;-64
2023/07/19 21:32:59;;;;;;;7.85;4.35;;;;;;;-145.68;100.00;73164.00;10336534;28;20664;-64
2023/07/19 21:37:59;;;;;;;9.95;4.38;;;;;;;-145.68;100.00;73168.00;10336247;28;20562;-64
2023/07/19 21:43:00;;;;;;;5.22;4.00;;;;;;;-145.68;100.00;73162.00;10336165;28;20230;-64
2023/07/19 21:48:00;;;;;;;5.75;4.15;;;;;;;-145.68;100.00;73168.00;10336038;28;20241;-64
2023/07/19 21:53:00;;;;;;;4.78;3.88;;;;;;;-145.68;100.00;73180.00;10335659;28;20557;-64
2023/07/19 21:58:01;;;;;;;4.70;3.53;;;;;;;-145.68;100.00;73182.00;10334672;28;20214;-65
2023/07/19 22:03:01;;;;;;;4.63;3.25;;;;;;;-145.68;100.00;73194.00;10335054;28;20222;-64
2023/07/19 22:08:02;;;;;;;4.72;3.35;;;;;;;-145.68;100.00;73200.00;10335105;28;20309;-64
2023/07/19 22:13:03;;;;;;;5.22;4.10;;;;;;;-145.68;100.00;73211.97;10334870;28;20665;-64
2023/07/19 22:18:21;;;;;;;3.90;3.38;;;;;;;-145.68;100.00;73200.00;10334853;28;20596;-65
2023/07/19 22:23:21;;;;;;;4.78;2.95;;;;;;;-145.68;100.00;73203.97;10334870;28;20213;-64
2023/07/19 22:28:22;;;;;;;4.10;3.20;;;;;;;-145.68;100.00;73207.97;10334462;28;20240;-65
2023/07/19 22:33:23;;;;;;;4.30;2.85;;;;;;;-145.68;100.00;73211.97;10334370;28;20608;-65
2023/07/19 22:38:24;;;;;;;3.38;3.00;;;;;;;-145.68;100.00;73223.97;10334047;28;20214;-65
2023/07/19 22:43:25;;;;;;;6.93;2.65;;;;;;;-145.68;100.00;73225.97;10332842;28;20245;-64
2023/07/19 22:48:25;;;;;;;7.82;3.53;;;;;;;-145.68;100.00;73231.97;10333677;28;20240;-64